createdAt,value
2022-09-06T00:00:25.794Z,4.80
2022-09-06T00:02:52.757Z,5.13
2022-09-06T00:05:19.789Z,5.30
2022-09-06T00:07:46.788Z,4.63
2022-09-06T00:10:13.892Z,5.47
2022-09-06T00:12:41.258Z,6.23
2022-09-06T00:15:08.900Z,5.43
2022-09-06T00:17:35.843Z,5.73
2022-09-06T00:20:04.723Z,5.33
2022-09-06T00:22:31.563Z,5.20
2022-09-06T00:24:58.380Z,5.43
2022-09-06T00:27:25.240Z,5.97
2022-09-06T00:29:52.050Z,5.40
2022-09-06T00:32:18.891Z,6.30
2022-09-06T00:34:45.694Z,5.93
2022-09-06T00:37:12.486Z,5.40
2022-09-06T00:39:39.300Z,5.80
2022-09-06T00:42:11.499Z,5.37
2022-09-06T00:44:39.270Z,5.57
2022-09-06T00:47:07.861Z,5.70
2022-09-06T00:49:44.656Z,7.13
2022-09-06T00:52:19.820Z,6.03
2022-09-06T00:54:48.454Z,8.30
2022-09-06T00:57:17.018Z,5.97
2022-09-06T00:59:46.106Z,5.97
2022-09-06T01:02:13.335Z,6.27
2022-09-06T01:04:43.624Z,6.67
2022-09-06T01:08:09.183Z,6.53
2022-09-06T01:11:20.493Z,5.93
2022-09-06T01:13:53.151Z,6.60
2022-09-06T01:16:59.791Z,6.30
2022-09-06T01:20:00.226Z,6.13
2022-09-06T01:22:51.782Z,6.90
2022-09-06T01:25:59.862Z,7.67
2022-09-06T01:28:39.675Z,7.00
2022-09-06T01:31:11.782Z,6.43
2022-09-06T01:34:05.649Z,6.37
2022-09-06T01:37:09.378Z,6.60
2022-09-06T01:39:39.003Z,6.80
2022-09-06T01:42:30.827Z,7.40
2022-09-06T01:45:08.474Z,7.53
2022-09-06T01:48:19.515Z,7.40
2022-09-06T01:50:54.582Z,7.63
2022-09-06T01:53:39.378Z,8.40
2022-09-06T01:56:41.091Z,8.53
2022-09-06T01:59:51.430Z,10.43
2022-09-06T02:02:43.825Z,8.67
2022-09-06T02:05:27.759Z,9.53
2022-09-06T02:08:02.178Z,10.37
2022-09-06T02:11:06.722Z,10.00
2022-09-06T02:13:52.775Z,10.10
2022-09-06T02:16:25.955Z,9.37
2022-09-06T02:18:56.334Z,9.97
2022-09-06T02:21:30.794Z,9.83
2022-09-06T02:24:05.234Z,10.47
2022-09-06T02:26:38.038Z,9.63
2022-09-06T02:29:05.150Z,10.27
2022-09-06T02:31:43.904Z,9.53
2022-09-06T02:34:15.042Z,9.27
2022-09-06T02:36:42.094Z,9.13
2022-09-06T02:39:09.567Z,10.40
2022-09-06T02:41:36.876Z,9.73
2022-09-06T02:44:03.767Z,9.87
2022-09-06T02:46:30.757Z,10.70
2022-09-06T02:48:57.831Z,11.67
2022-09-06T02:51:24.651Z,11.20
2022-09-06T02:53:51.494Z,12.23
2022-09-06T02:56:18.304Z,11.17
2022-09-06T02:58:45.137Z,12.67
2022-09-06T03:01:12.539Z,12.77
2022-09-06T03:03:39.431Z,13.87
2022-09-06T03:06:06.627Z,11.30
2022-09-06T03:08:34.166Z,12.43
2022-09-06T03:11:01.378Z,13.27
2022-09-06T03:13:28.423Z,14.20
2022-09-06T03:15:58.490Z,13.33
2022-09-06T03:18:27.905Z,14.40
2022-09-06T03:20:56.360Z,15.97
2022-09-06T03:23:26.700Z,13.43
2022-09-06T03:25:54.038Z,13.60
2022-09-06T03:28:22.060Z,13.27
2022-09-06T03:30:51.477Z,14.53
2022-09-06T03:33:19.470Z,12.63
2022-09-06T03:35:58.642Z,13.40
2022-09-06T03:38:28.195Z,13.53
2022-09-06T03:40:55.661Z,13.63
2022-09-06T03:43:24.850Z,13.40
2022-09-06T03:45:54.842Z,13.77
2022-09-06T03:48:24.718Z,13.40
2022-09-06T03:50:55.667Z,14.30
2022-09-06T03:53:24.536Z,14.13
2022-09-06T03:55:53.983Z,13.83
2022-09-06T03:58:23.313Z,14.00
2022-09-06T04:01:00.228Z,13.20
2022-09-06T04:03:27.159Z,14.30
2022-09-06T04:05:53.989Z,15.57
2022-09-06T04:08:20.789Z,15.27
2022-09-06T04:10:52.858Z,15.07
2022-09-06T04:13:19.670Z,16.70
2022-09-06T04:15:47.904Z,15.70
2022-09-06T04:18:15.523Z,16.30
2022-09-06T04:20:42.814Z,15.10
2022-09-06T04:23:09.646Z,15.20
2022-09-06T04:25:37.587Z,14.50
2022-09-06T04:28:04.478Z,15.43
2022-09-06T04:30:31.552Z,14.57
2022-09-06T04:32:58.362Z,14.40
2022-09-06T04:35:25.171Z,15.43
2022-09-06T04:37:51.983Z,14.53
2022-09-06T04:40:18.803Z,15.67
2022-09-06T04:42:45.594Z,16.43
2022-09-06T04:45:12.432Z,16.67
2022-09-06T04:47:39.259Z,15.20
2022-09-06T04:50:06.642Z,15.57
2022-09-06T04:52:33.574Z,16.77
2022-09-06T04:55:00.399Z,17.13
2022-09-06T04:57:27.319Z,16.97
2022-09-06T04:59:54.136Z,16.17
2022-09-06T05:02:20.989Z,17.13
2022-09-06T05:04:47.883Z,13.93
2022-09-06T05:07:14.698Z,12.30
2022-09-06T05:09:41.503Z,12.60
2022-09-06T05:12:08.451Z,12.97
2022-09-06T05:14:35.405Z,12.50
2022-09-06T05:17:02.220Z,10.70
2022-09-06T05:19:29.062Z,8.37
2022-09-06T05:21:55.909Z,7.10
2022-09-06T05:24:22.706Z,6.83
2022-09-06T05:26:49.587Z,8.30
2022-09-06T05:29:16.422Z,9.20
2022-09-06T05:31:43.323Z,10.10
2022-09-06T05:34:10.488Z,12.73
2022-09-06T05:36:38.694Z,13.13
2022-09-06T05:39:05.526Z,11.33
2022-09-06T05:41:33.711Z,10.80
2022-09-06T05:44:00.513Z,9.87
2022-09-06T05:46:27.309Z,14.13
2022-09-06T05:48:56.002Z,15.90
2022-09-06T05:51:22.836Z,13.60
2022-09-06T05:53:49.857Z,14.70
2022-09-06T05:56:17.623Z,9.27
2022-09-06T05:58:44.614Z,9.43
2022-09-06T06:01:26.970Z,10.20
2022-09-06T06:04:00.998Z,17.27
2022-09-06T06:06:31.401Z,17.43
2022-09-06T06:08:58.707Z,18.20
2022-09-06T06:11:26.777Z,21.27
2022-09-06T06:13:53.935Z,22.67
2022-09-06T06:16:22.624Z,22.43
2022-09-06T06:18:52.230Z,22.87
2022-09-06T06:21:21.875Z,19.53
2022-09-06T06:23:55.733Z,18.97
2022-09-06T06:26:23.146Z,18.00
2022-09-06T06:28:50.316Z,16.37
2022-09-06T06:31:17.635Z,15.33
2022-09-06T06:33:44.465Z,13.40
2022-09-06T06:36:14.027Z,15.77
2022-09-06T06:38:45.590Z,15.37
2022-09-06T06:41:15.731Z,14.47
2022-09-06T06:43:42.801Z,16.17
2022-09-06T06:46:17.794Z,15.47
2022-09-06T06:48:46.291Z,14.60
2022-09-06T06:51:16.857Z,12.77
2022-09-06T06:53:47.422Z,11.73
2022-09-06T06:56:16.607Z,11.57
2022-09-06T06:58:45.054Z,13.13
2022-09-06T07:01:13.246Z,12.70
2022-09-06T07:03:40.326Z,11.57
2022-09-06T07:08:40.328Z,11.03
2022-09-06T07:11:09.960Z,11.00
2022-09-06T07:13:37.434Z,10.03
2022-09-06T07:16:16.593Z,11.27
2022-09-06T07:18:45.708Z,10.87
2022-09-06T07:24:05.888Z,8.77
2022-09-06T07:26:34.243Z,8.37
2022-09-06T07:29:03.076Z,7.77
2022-09-06T07:34:19.290Z,7.00
2022-09-06T07:36:46.196Z,7.13
2022-09-06T07:39:12.999Z,7.13
2022-09-06T07:41:39.838Z,5.40
2022-09-06T07:44:06.637Z,5.70
2022-09-06T07:46:33.512Z,5.53
2022-09-06T07:49:00.361Z,6.23
2022-09-06T07:51:27.180Z,6.33
2022-09-06T07:54:12.935Z,5.60
2022-09-06T07:56:42.728Z,6.63
2022-09-06T07:59:09.639Z,4.00
2022-09-06T08:01:38.951Z,5.73
2022-09-06T08:04:12.733Z,5.87
2022-09-06T08:09:33.384Z,4.13
2022-09-06T08:12:06.451Z,3.30
2022-09-06T08:14:34.391Z,3.63
2022-09-06T08:17:01.932Z,4.83
2022-09-06T08:19:28.791Z,3.30
2022-09-06T08:21:56.040Z,3.33
2022-09-06T08:24:22.909Z,4.37
2022-09-06T08:26:50.240Z,4.43
2022-09-06T08:29:17.366Z,5.23
2022-09-06T08:31:45.121Z,4.07
2022-09-06T08:34:12.741Z,4.23
2022-09-06T08:36:39.853Z,5.20
2022-09-06T08:39:09.943Z,4.10
2022-09-06T08:42:03.649Z,5.00
2022-09-06T08:47:24.407Z,3.90
2022-09-06T08:50:01.386Z,3.93
2022-09-06T08:53:13.219Z,4.90
2022-09-06T08:55:45.885Z,3.03
2022-09-06T08:58:40.456Z,5.53
2022-09-06T09:01:15.826Z,3.27
2022-09-06T09:03:43.920Z,3.70
2022-09-06T09:06:11.480Z,4.27
2022-09-06T09:09:13.457Z,4.80
2022-09-06T09:11:46.955Z,4.47
2022-09-06T09:14:29.555Z,3.53
2022-09-06T09:17:11.962Z,8.33
2022-09-06T09:19:41.677Z,6.80
2022-09-06T09:22:09.094Z,4.80
2022-09-06T09:24:37.044Z,3.80
2022-09-06T09:27:13.808Z,3.90
2022-09-06T09:32:45.252Z,4.20
2022-09-06T09:35:27.356Z,2.60
2022-09-06T09:38:07.848Z,5.47
2022-09-06T09:40:41.497Z,5.87
2022-09-06T09:43:17.545Z,3.53
2022-09-06T09:45:45.691Z,6.10
2022-09-06T09:48:27.199Z,2.13
2022-09-06T09:50:55.995Z,5.67
2022-09-06T09:53:24.203Z,3.63
2022-09-06T09:56:00.068Z,4.77
2022-09-06T09:58:35.282Z,3.03
2022-09-06T10:01:17.810Z,4.33
2022-09-06T10:09:32.018Z,5.27
2022-09-06T10:11:59.833Z,4.53
2022-09-06T10:14:29.623Z,7.70
2022-09-06T10:16:58.074Z,2.57
2022-09-06T10:19:41.307Z,3.90
2022-09-06T10:23:01.694Z,4.80
2022-09-06T10:25:55.592Z,3.50
2022-09-06T10:28:36.366Z,2.43
2022-09-06T10:31:42.179Z,2.67
2022-09-06T10:34:39.484Z,2.43
2022-09-06T10:37:33.670Z,3.53
2022-09-06T10:40:10.008Z,2.97
2022-09-06T10:42:42.190Z,2.50
2022-09-06T10:45:27.623Z,3.80
2022-09-06T10:48:31.613Z,2.72
2022-09-06T10:51:12.111Z,2.75
2022-09-06T10:53:57.544Z,3.17
2022-09-06T10:56:43.967Z,2.08
2022-09-06T10:59:38.077Z,4.43
2022-09-06T11:02:40.047Z,3.55
2022-09-06T11:10:55.901Z,2.90
2022-09-06T11:13:27.589Z,2.92
2022-09-06T11:16:13.974Z,3.63
2022-09-06T11:18:58.416Z,2.30
2022-09-06T11:22:01.563Z,3.53
2022-09-06T11:25:05.351Z,3.38
2022-09-06T11:27:32.041Z,3.85
2022-09-06T11:30:01.608Z,3.55
2022-09-06T11:32:45.633Z,4.22
2022-09-06T11:35:29.280Z,1.92
2022-09-06T11:38:08.266Z,3.25
2022-09-06T11:40:43.498Z,3.95
2022-09-06T11:43:46.755Z,3.30
2022-09-06T11:46:35.442Z,2.75
2022-09-06T11:49:32.636Z,1.63
2022-09-06T11:51:59.698Z,3.10
2022-09-06T11:54:44.640Z,2.58
2022-09-06T11:57:16.758Z,4.80
2022-09-06T11:59:49.603Z,3.05
2022-09-06T12:02:41.379Z,3.60
2022-09-06T12:05:13.940Z,3.50
2022-09-06T12:08:24.705Z,3.55
2022-09-06T12:11:00.925Z,2.83
2022-09-06T12:13:46.044Z,2.78
2022-09-06T12:16:15.327Z,3.60
2022-09-06T12:18:47.911Z,1.50
2022-09-06T12:21:46.366Z,2.55
2022-09-06T12:24:35.219Z,2.28
2022-09-06T12:28:01.522Z,4.30
2022-09-06T12:30:39.472Z,3.53
2022-09-06T12:33:14.050Z,3.38
2022-09-06T12:35:56.411Z,6.93
2022-09-06T12:38:25.462Z,5.50
2022-09-06T12:40:58.124Z,4.30
2022-09-06T12:43:25.509Z,7.38
2022-09-06T12:45:53.145Z,4.63
2022-09-06T12:48:30.517Z,2.22
2022-09-06T12:51:20.391Z,6.90
2022-09-06T12:53:59.287Z,5.18
2022-09-06T12:56:29.468Z,4.93
2022-09-06T12:59:21.374Z,3.05
2022-09-06T13:02:22.815Z,4.55
2022-09-06T13:05:01.928Z,7.20
2022-09-06T13:07:31.582Z,5.50
2022-09-06T13:09:59.004Z,3.75
2022-09-06T13:12:31.113Z,6.53
2022-09-06T13:15:14.135Z,7.10
2022-09-06T13:17:41.083Z,4.15
2022-09-06T13:20:27.016Z,6.35
2022-09-06T13:23:06.066Z,7.25
2022-09-06T13:25:33.503Z,4.65
2022-09-06T13:28:01.591Z,7.72
2022-09-06T13:30:34.401Z,6.50
2022-09-06T13:33:02.974Z,6.50
2022-09-06T13:35:36.606Z,7.32
2022-09-06T13:38:32.227Z,7.10
2022-09-06T13:41:16.723Z,6.82
2022-09-06T13:43:47.533Z,5.35
2022-09-06T13:46:14.365Z,7.10
2022-09-06T13:48:42.988Z,6.20
2022-09-06T13:51:10.155Z,7.32
2022-09-06T13:53:37.082Z,4.03
2022-09-06T13:56:06.031Z,7.75
2022-09-06T13:58:33.054Z,6.00
2022-09-06T14:01:00.139Z,9.80
2022-09-06T14:03:31.701Z,4.63
2022-09-06T14:06:00.212Z,7.10
2022-09-06T14:08:43.402Z,6.07
2022-09-06T14:11:15.450Z,8.27
2022-09-06T14:13:42.467Z,8.63
2022-09-06T14:16:09.322Z,5.47
2022-09-06T14:18:36.469Z,8.23
2022-09-06T14:21:05.367Z,7.07
2022-09-06T14:23:32.235Z,7.85
2022-09-06T14:26:01.308Z,7.00
2022-09-06T14:28:30.861Z,6.68
2022-09-06T14:30:57.691Z,6.18
2022-09-06T14:33:24.517Z,7.75
2022-09-06T14:35:52.327Z,7.50
2022-09-06T14:38:19.478Z,6.43
2022-09-06T14:40:46.278Z,6.53
2022-09-06T14:43:13.185Z,6.05
2022-09-06T14:45:40.043Z,5.75
2022-09-06T14:48:07.120Z,4.88
2022-09-06T14:50:34.318Z,6.80
2022-09-06T14:53:01.904Z,9.27
2022-09-06T14:55:30.254Z,3.88
2022-09-06T14:57:59.200Z,4.85
2022-09-06T15:00:26.046Z,4.95
2022-09-06T15:02:54.419Z,6.70
2022-09-06T15:05:21.344Z,5.20
2022-09-06T15:07:48.170Z,4.85
2022-09-06T15:10:15.083Z,5.88
2022-09-06T15:12:41.890Z,7.43
2022-09-06T15:15:09.555Z,3.22
2022-09-06T15:17:36.618Z,7.72
2022-09-06T15:20:04.091Z,11.55
2022-09-06T15:22:31.069Z,7.10
2022-09-06T15:24:57.875Z,7.22
2022-09-06T15:27:24.703Z,8.30
2022-09-06T15:29:51.511Z,6.18
2022-09-06T15:32:18.382Z,7.30
2022-09-06T15:34:45.196Z,6.82
2022-09-06T15:37:11.999Z,6.90
2022-09-06T15:39:38.877Z,5.93
2022-09-06T15:42:06.094Z,11.07
2022-09-06T15:44:34.205Z,8.60
2022-09-06T15:47:01.081Z,6.85
2022-09-06T15:49:32.265Z,4.95
2022-09-06T15:52:01.885Z,7.40
2022-09-06T15:54:47.686Z,10.23
2022-09-06T15:57:17.480Z,9.25
2022-09-06T15:59:45.110Z,9.95
2022-09-06T16:02:13.114Z,9.00
2022-09-06T16:04:40.328Z,6.45
2022-09-06T16:07:07.254Z,8.32
2022-09-06T16:09:34.108Z,7.07
2022-09-06T16:12:00.954Z,6.68
2022-09-06T16:14:28.911Z,9.25
2022-09-06T16:16:57.185Z,8.25
2022-09-06T16:19:25.925Z,7.63
2022-09-06T16:21:52.825Z,5.55
2022-09-06T16:24:19.727Z,7.15
2022-09-06T16:26:47.285Z,5.60
2022-09-06T16:29:16.454Z,5.35
2022-09-06T16:31:43.596Z,5.95
2022-09-06T16:34:12.652Z,6.43
2022-09-06T16:36:40.680Z,6.68
2022-09-06T16:39:08.271Z,6.07
2022-09-06T16:41:40.966Z,7.80
2022-09-06T16:44:14.344Z,6.93
2022-09-06T16:46:41.699Z,6.85
2022-09-06T16:49:09.024Z,8.07
2022-09-06T16:51:36.282Z,7.43
2022-09-06T16:54:03.508Z,6.65
2022-09-06T16:56:34.651Z,6.55
2022-09-06T16:59:07.607Z,6.57
2022-09-06T17:01:37.082Z,8.07
2022-09-06T17:04:05.691Z,5.63
2022-09-06T17:06:35.689Z,6.65
2022-09-06T17:09:02.504Z,7.80
2022-09-06T17:11:29.869Z,7.73
2022-09-06T17:13:57.784Z,8.93
2022-09-06T17:16:43.503Z,7.40
2022-09-06T17:19:10.842Z,6.40
2022-09-06T17:21:39.151Z,6.70
2022-09-06T17:24:07.691Z,7.17
2022-09-06T17:26:37.171Z,5.83
2022-09-06T17:29:04.162Z,5.13
2022-09-06T17:31:31.085Z,7.67
2022-09-06T17:33:59.622Z,7.40
2022-09-06T17:36:30.454Z,8.73
2022-09-06T17:39:08.978Z,7.13
2022-09-06T17:41:42.324Z,6.40
2022-09-06T17:44:11.055Z,10.03
2022-09-06T17:46:47.606Z,8.93
2022-09-06T17:49:19.237Z,7.30
2022-09-06T17:51:46.585Z,5.27
2022-09-06T17:54:14.655Z,8.33
2022-09-06T17:56:41.559Z,9.67
2022-09-06T17:59:13.958Z,6.73
2022-09-06T18:01:42.679Z,7.23
2022-09-06T18:04:11.356Z,5.63
2022-09-06T18:06:41.318Z,4.90
2022-09-06T18:09:14.557Z,8.87
2022-09-06T18:11:42.397Z,8.33
2022-09-06T18:14:15.881Z,5.90
2022-09-06T18:16:45.303Z,4.53
2022-09-06T18:19:12.525Z,6.47
2022-09-06T18:21:40.966Z,5.27
2022-09-06T18:24:09.849Z,7.60
2022-09-06T18:26:37.584Z,6.37
2022-09-06T18:29:11.904Z,6.70
2022-09-06T18:31:39.612Z,9.00
2022-09-06T18:34:07.779Z,5.20
2022-09-06T18:36:35.134Z,6.07
2022-09-06T18:39:04.061Z,8.33
2022-09-06T18:41:51.024Z,7.07
2022-09-06T18:44:17.906Z,6.93
2022-09-06T18:46:45.146Z,5.73
2022-09-06T18:49:14.904Z,6.63
2022-09-06T18:51:42.698Z,7.77
2022-09-06T18:54:10.818Z,7.80
2022-09-06T18:56:38.447Z,5.10
2022-09-06T18:59:05.692Z,6.73
2022-09-06T19:01:34.747Z,7.70
2022-09-06T19:04:03.011Z,5.47
2022-09-06T19:06:32.399Z,8.47
2022-09-06T19:09:02.027Z,10.50
2022-09-06T19:11:29.394Z,4.20
2022-09-06T19:13:58.028Z,3.83
2022-09-06T19:16:27.443Z,7.10
2022-09-06T19:18:58.575Z,6.33
2022-09-06T19:21:26.072Z,9.93
2022-09-06T19:24:06.042Z,4.03
2022-09-06T19:26:37.883Z,9.10
2022-09-06T19:29:09.030Z,10.37
2022-09-06T19:31:38.094Z,7.47
2022-09-06T19:34:05.624Z,6.30
2022-09-06T19:36:33.065Z,7.30
2022-09-06T19:39:04.335Z,4.50
2022-09-06T19:41:34.682Z,5.90
2022-09-06T19:44:04.039Z,6.20
2022-09-06T19:46:31.007Z,3.83
2022-09-06T19:48:58.157Z,6.30
2022-09-06T19:51:25.562Z,6.63
2022-09-06T19:53:55.109Z,5.30
2022-09-06T19:56:25.941Z,6.33
2022-09-06T19:58:55.594Z,8.67
2022-09-06T20:01:24.244Z,8.10
2022-09-06T20:03:52.453Z,5.40
2022-09-06T20:06:19.428Z,8.67
2022-09-06T20:08:51.621Z,9.97
2022-09-06T20:11:21.159Z,7.27
2022-09-06T20:13:48.685Z,4.63
2022-09-06T20:16:16.543Z,6.93
2022-09-06T20:18:43.535Z,8.03
2022-09-06T20:21:13.741Z,8.67
2022-09-06T20:23:41.277Z,5.80
2022-09-06T20:26:11.636Z,5.00
2022-09-06T20:28:38.511Z,4.33
2022-09-06T20:31:12.151Z,5.07
2022-09-06T20:33:39.631Z,6.87
2022-09-06T20:36:08.610Z,4.10
2022-09-06T20:38:41.447Z,4.77
2022-09-06T20:41:20.460Z,9.97
2022-09-06T20:43:52.990Z,7.43
2022-09-06T20:46:22.716Z,5.47
2022-09-06T20:48:50.356Z,6.50
2022-09-06T20:51:20.888Z,9.93
2022-09-06T20:53:54.241Z,6.00
2022-09-06T20:56:25.141Z,5.33
2022-09-06T20:58:55.239Z,6.80
2022-09-06T21:01:26.602Z,6.40
2022-09-06T21:03:57.392Z,8.63
2022-09-06T21:06:27.626Z,6.97
2022-09-06T21:08:55.439Z,8.53
2022-09-06T21:11:23.054Z,10.73
2022-09-06T21:13:53.130Z,6.67
2022-09-06T21:16:24.310Z,6.40
2022-09-06T21:18:57.847Z,5.50
2022-09-06T21:21:26.110Z,5.37
2022-09-06T21:23:53.969Z,5.07
2022-09-06T21:26:22.309Z,7.33
2022-09-06T21:28:49.852Z,7.97
2022-09-06T21:31:23.784Z,4.70
2022-09-06T21:33:53.198Z,5.47
2022-09-06T21:36:29.821Z,9.13
2022-09-06T21:38:59.906Z,9.70
2022-09-06T21:41:28.160Z,5.90
2022-09-06T21:43:59.483Z,9.23
2022-09-06T21:46:33.101Z,5.80
2022-09-06T21:49:04.661Z,7.47
2022-09-06T21:51:32.497Z,4.90
2022-09-06T21:53:59.846Z,6.40
2022-09-06T21:56:26.800Z,6.03
2022-09-06T21:58:56.125Z,8.00
2022-09-06T22:01:31.531Z,5.40
2022-09-06T22:03:58.574Z,5.87
2022-09-06T22:06:28.988Z,5.50
2022-09-06T22:08:58.494Z,5.53
2022-09-06T22:11:29.198Z,5.97
2022-09-06T22:14:02.462Z,5.17
2022-09-06T22:16:31.150Z,6.30
2022-09-06T22:18:58.027Z,8.30
2022-09-06T22:21:25.175Z,6.37
2022-09-06T22:23:56.841Z,7.97
2022-09-06T22:26:25.907Z,4.67
2022-09-06T22:28:55.566Z,5.73
2022-09-06T22:31:23.835Z,6.23
2022-09-06T22:33:51.278Z,5.40
2022-09-06T22:36:18.499Z,6.27
2022-09-06T22:38:46.003Z,6.57
2022-09-06T22:41:12.910Z,6.57
2022-09-06T22:43:39.779Z,6.47
2022-09-06T22:46:09.721Z,9.00
2022-09-06T22:48:37.344Z,8.17
2022-09-06T22:51:06.012Z,8.27
2022-09-06T22:53:33.775Z,6.83
2022-09-06T22:56:01.468Z,7.07
2022-09-06T22:58:28.921Z,6.07
2022-09-06T23:00:56.558Z,6.40
2022-09-06T23:03:23.543Z,6.03
2022-09-06T23:05:50.587Z,8.63
2022-09-06T23:08:17.419Z,5.90
2022-09-06T23:10:44.515Z,7.07
2022-09-06T23:13:11.692Z,4.77
2022-09-06T23:15:40.719Z,4.97
2022-09-06T23:18:08.327Z,6.93
2022-09-06T23:20:37.132Z,6.07
2022-09-06T23:23:05.155Z,5.20
2022-09-06T23:25:32.107Z,5.70
2022-09-06T23:28:00.397Z,6.73
2022-09-06T23:30:27.234Z,6.27
2022-09-06T23:32:56.293Z,4.97
2022-09-06T23:35:24.212Z,4.73
2022-09-06T23:37:51.383Z,6.00
2022-09-06T23:40:19.523Z,5.60
2022-09-06T23:42:46.830Z,6.90
2022-09-06T23:45:13.852Z,5.57
2022-09-06T23:47:41.524Z,5.50
2022-09-06T23:50:09.025Z,4.17
2022-09-06T23:52:35.930Z,5.13
2022-09-06T23:55:03.303Z,4.63
2022-09-06T23:57:30.207Z,7.23
2022-09-06T23:59:57.032Z,6.50
